createdAt,value
2018-09-12T00:20:28.804Z,5.00
2018-09-12T00:57:35.406Z,3.90
2018-09-12T01:02:33.977Z,9.00
2018-09-12T01:07:30.156Z,7.60
2018-09-12T01:10:00.066Z,4.30
2018-09-12T01:12:28.897Z,5.00
2018-09-12T01:14:56.865Z,4.80
2018-09-12T01:17:24.785Z,3.75
2018-09-12T01:19:52.647Z,5.20
2018-09-12T01:22:20.591Z,5.20
2018-09-12T01:27:18.213Z,4.13
2018-09-12T01:29:46.141Z,10.13
2018-09-12T01:32:14.000Z,5.27
2018-09-12T01:34:41.916Z,6.50
2018-09-12T01:39:38.193Z,4.83
2018-09-12T01:42:06.219Z,7.23
2018-09-12T01:44:34.116Z,7.70
2018-09-12T01:47:02.097Z,5.70
2018-09-12T01:49:30.999Z,5.50
2018-09-12T01:51:58.881Z,5.33
2018-09-12T01:54:27.859Z,7.30
2018-09-12T01:56:55.818Z,7.03
2018-09-12T01:59:23.763Z,5.17
2018-09-12T02:01:51.771Z,9.43
2018-09-12T02:04:19.708Z,8.73
2018-09-12T02:06:47.656Z,5.80
2018-09-12T02:09:15.773Z,5.23
2018-09-12T02:11:43.649Z,6.90
2018-09-12T02:14:11.694Z,6.97
2018-09-12T02:16:39.612Z,13.40
2018-09-12T02:19:07.597Z,9.40
2018-09-12T02:21:35.614Z,6.20
2018-09-12T02:24:03.640Z,6.50
2018-09-12T02:26:31.709Z,5.70
2018-09-12T02:28:59.594Z,8.20
2018-09-12T02:31:27.614Z,7.90
2018-09-12T02:33:56.520Z,9.20
2018-09-12T02:36:27.050Z,7.15
2018-09-12T02:38:55.345Z,8.30
2018-09-12T02:41:23.649Z,11.03
2018-09-12T02:43:51.726Z,6.45
2018-09-12T02:46:19.782Z,7.40
2018-09-12T02:48:47.770Z,8.70
2018-09-12T02:51:15.688Z,6.05
2018-09-12T02:53:43.750Z,10.50
2018-09-12T02:56:11.641Z,8.50
2018-09-12T02:58:39.547Z,7.60
2018-09-12T03:01:07.500Z,8.63
2018-09-12T03:03:35.483Z,8.40
2018-09-12T03:13:24.926Z,6.10
2018-09-12T03:25:41.751Z,4.60
2018-09-12T03:28:10.029Z,7.45
2018-09-12T03:33:05.290Z,6.75
2018-09-12T03:35:34.192Z,8.95
2018-09-12T03:38:02.326Z,7.80
2018-09-12T03:40:30.526Z,8.50
2018-09-12T03:42:58.561Z,6.80
2018-09-12T03:45:26.421Z,5.80
2018-09-12T03:47:54.365Z,6.50
2018-09-12T03:50:22.289Z,8.40
2018-09-12T03:52:51.148Z,8.13
2018-09-12T03:55:19.006Z,7.60
2018-09-12T03:57:46.966Z,7.37
2018-09-12T04:00:15.413Z,6.80
2018-09-12T04:02:43.431Z,5.53
2018-09-12T04:05:11.229Z,8.70
2018-09-12T04:07:40.061Z,10.17
2018-09-12T04:10:07.945Z,9.33
2018-09-12T04:12:35.804Z,7.37
2018-09-12T04:15:03.670Z,6.90
2018-09-12T04:17:34.529Z,7.23
2018-09-12T04:20:02.490Z,6.10
2018-09-12T04:22:30.558Z,8.77
2018-09-12T04:24:58.406Z,5.17
2018-09-12T04:27:26.298Z,10.60
2018-09-12T04:29:54.550Z,7.80
2018-09-12T04:32:22.475Z,8.63
2018-09-12T04:34:50.419Z,5.20
2018-09-12T04:37:18.312Z,9.20
2018-09-12T04:39:46.266Z,9.63
2018-09-12T04:42:14.240Z,8.83
2018-09-12T04:44:42.073Z,7.27
2018-09-12T04:47:09.960Z,8.80
2018-09-12T04:49:37.797Z,6.10
2018-09-12T04:52:05.737Z,8.70
2018-09-12T04:54:33.626Z,7.10
2018-09-12T04:57:01.529Z,8.33
2018-09-12T04:59:29.404Z,8.73
2018-09-12T05:01:57.219Z,5.90
2018-09-12T05:04:25.078Z,6.00
2018-09-12T05:06:52.972Z,7.77
2018-09-12T05:09:20.799Z,9.30
2018-09-12T05:11:48.737Z,6.07
2018-09-12T05:14:16.617Z,8.20
2018-09-12T05:16:44.586Z,7.97
2018-09-12T05:19:12.450Z,7.77
2018-09-12T05:21:40.385Z,7.50
2018-09-12T05:24:08.282Z,9.87
2018-09-12T05:26:36.149Z,6.20
2018-09-12T05:29:05.058Z,11.13
2018-09-12T05:31:32.948Z,8.40
2018-09-12T05:34:00.832Z,6.93
2018-09-12T05:36:28.817Z,6.90
2018-09-12T05:38:56.611Z,10.00
2018-09-12T05:41:24.558Z,9.23
2018-09-12T05:43:52.509Z,7.30
2018-09-12T05:46:20.353Z,9.83
2018-09-12T05:48:48.309Z,7.67
2018-09-12T05:51:16.221Z,10.50
2018-09-12T05:53:44.119Z,13.83
2018-09-12T05:56:12.000Z,8.97
2018-09-12T05:58:39.899Z,9.27
2018-09-12T06:01:07.806Z,6.30
2018-09-12T06:03:35.699Z,8.53
2018-09-12T06:06:03.661Z,7.87
2018-09-12T06:08:31.652Z,7.20
2018-09-12T06:10:59.648Z,8.40
2018-09-12T06:13:27.597Z,16.93
2018-09-12T06:15:56.534Z,13.27
2018-09-12T06:18:24.361Z,8.63
2018-09-12T06:20:52.318Z,21.03
2018-09-12T06:23:20.200Z,7.80
2018-09-12T06:25:48.097Z,11.60
2018-09-12T06:28:15.953Z,6.73
2018-09-12T06:30:43.819Z,7.23
2018-09-12T06:33:11.708Z,7.77
2018-09-12T06:35:39.548Z,10.30
2018-09-12T06:38:07.449Z,10.10
2018-09-12T06:40:35.297Z,6.30
2018-09-12T06:43:03.197Z,7.57
2018-09-12T06:45:31.112Z,9.10
2018-09-12T06:47:59.017Z,8.33
2018-09-12T06:50:26.873Z,5.37
2018-09-12T06:52:54.765Z,10.47
2018-09-12T06:55:22.611Z,5.60
2018-09-12T06:57:50.453Z,9.33
2018-09-12T07:00:18.434Z,7.53
2018-09-12T07:02:46.271Z,9.87
2018-09-12T07:05:14.174Z,6.90
2018-09-12T07:07:42.064Z,8.60
2018-09-12T07:10:09.905Z,12.03
2018-09-12T07:12:37.827Z,5.63
2018-09-12T07:15:06.786Z,5.57
2018-09-12T07:17:34.588Z,7.00
2018-09-12T07:20:02.503Z,6.67
2018-09-12T07:22:30.498Z,6.40
2018-09-12T07:25:00.349Z,11.77
2018-09-12T07:27:28.294Z,6.03
2018-09-12T07:29:57.123Z,11.00
2018-09-12T07:32:24.996Z,9.10
2018-09-12T07:34:52.926Z,6.07
2018-09-12T07:37:20.789Z,8.97
2018-09-12T07:39:48.752Z,8.40
2018-09-12T07:42:16.636Z,6.37
2018-09-12T07:44:44.541Z,6.83
2018-09-12T07:47:12.425Z,7.13
2018-09-12T07:49:40.299Z,6.00
2018-09-12T07:52:08.152Z,6.03
2018-09-12T07:54:36.057Z,6.70
2018-09-12T07:57:03.977Z,8.27
2018-09-12T08:02:06.174Z,6.97
2018-09-12T08:04:34.018Z,4.33
2018-09-12T08:07:01.945Z,6.70
2018-09-12T08:09:29.923Z,5.60
2018-09-12T08:11:57.829Z,8.37
2018-09-12T08:14:25.867Z,5.67
2018-09-12T08:16:53.859Z,5.13
2018-09-12T08:19:21.701Z,4.33
2018-09-12T08:21:49.600Z,7.60
2018-09-12T08:24:17.494Z,4.97
2018-09-12T08:26:45.339Z,4.10
2018-09-12T08:29:13.246Z,6.60
2018-09-12T08:31:41.166Z,6.70
2018-09-12T08:34:09.061Z,3.50
2018-09-12T08:36:37.029Z,3.63
2018-09-12T08:39:06.753Z,4.77
2018-09-12T08:41:34.627Z,5.27
2018-09-12T08:44:02.560Z,5.83
2018-09-12T08:46:30.404Z,6.20
2018-09-12T08:48:58.297Z,7.63
2018-09-12T08:51:26.156Z,5.63
2018-09-12T08:53:54.045Z,5.57
2018-09-12T08:56:21.919Z,5.53
2018-09-12T08:58:49.982Z,6.20
2018-09-12T09:01:17.852Z,5.87
2018-09-12T09:03:45.701Z,5.77
2018-09-12T09:06:13.615Z,5.60
2018-09-12T09:08:41.558Z,8.77
2018-09-12T09:11:09.620Z,7.23
2018-09-12T09:13:38.473Z,6.33
2018-09-12T09:16:06.407Z,7.83
2018-09-12T09:18:34.309Z,9.93
2018-09-12T09:21:02.231Z,3.83
2018-09-12T09:23:30.204Z,7.73
2018-09-12T09:25:58.185Z,9.60
2018-09-12T09:28:26.065Z,4.97
2018-09-12T09:30:53.941Z,4.43
2018-09-12T09:33:21.923Z,4.20
2018-09-12T09:35:49.957Z,4.97
2018-09-12T09:38:17.678Z,3.90
2018-09-12T09:40:45.533Z,5.00
2018-09-12T09:43:13.475Z,3.63
2018-09-12T09:45:41.340Z,7.20
2018-09-12T09:48:09.266Z,8.03
2018-09-12T09:50:37.171Z,5.40
2018-09-12T09:53:06.096Z,4.30
2018-09-12T09:55:33.992Z,6.33
2018-09-12T09:58:01.890Z,6.97
2018-09-12T10:00:35.276Z,6.03
2018-09-12T10:03:08.729Z,3.87
2018-09-12T10:05:42.032Z,3.47
2018-09-12T10:08:15.443Z,3.20
2018-09-12T10:10:43.317Z,3.20
2018-09-12T10:13:11.215Z,3.10
2018-09-12T10:15:40.142Z,3.73
2018-09-12T10:18:08.007Z,4.90
2018-09-12T10:20:35.896Z,3.90
2018-09-12T10:23:03.924Z,3.10
2018-09-12T10:25:31.850Z,3.27
2018-09-12T10:27:59.777Z,3.00
2018-09-12T10:30:27.718Z,4.80
2018-09-12T10:32:55.852Z,5.80
2018-09-12T10:35:23.841Z,5.03
2018-09-12T10:37:51.757Z,7.43
2018-09-12T10:40:19.692Z,5.33
2018-09-12T10:42:47.623Z,5.33
2018-09-12T10:45:15.758Z,4.27
2018-09-12T10:47:43.700Z,3.50
2018-09-12T10:50:11.568Z,4.33
2018-09-12T10:52:39.542Z,4.37
2018-09-12T10:55:08.418Z,4.40
2018-09-12T10:57:36.399Z,3.13
2018-09-12T11:00:04.888Z,4.30
2018-09-12T11:02:32.771Z,2.57
2018-09-12T11:05:00.637Z,2.70
2018-09-12T11:07:28.530Z,3.07
2018-09-12T11:09:56.466Z,2.57
2018-09-12T11:12:24.345Z,2.87
2018-09-12T11:14:52.262Z,3.30
2018-09-12T11:17:20.122Z,3.50
2018-09-12T11:19:47.953Z,2.20
2018-09-12T11:22:15.792Z,2.53
2018-09-12T11:24:43.763Z,2.77
2018-09-12T11:27:11.668Z,4.17
2018-09-12T11:29:39.843Z,2.73
2018-09-12T11:32:07.742Z,2.93
2018-09-12T11:34:35.676Z,2.60
2018-09-12T11:37:03.565Z,4.10
2018-09-12T11:39:31.376Z,2.77
2018-09-12T11:42:00.283Z,3.07
2018-09-12T11:44:28.192Z,3.23
2018-09-12T11:46:56.072Z,4.23
2018-09-12T11:49:24.034Z,4.63
2018-09-12T11:51:52.024Z,3.23
2018-09-12T11:54:19.971Z,2.50
2018-09-12T11:56:47.952Z,2.80
2018-09-12T11:59:16.782Z,3.20
2018-09-12T12:01:44.723Z,4.67
2018-09-12T12:04:12.662Z,4.53
2018-09-12T12:06:40.570Z,5.50
2018-09-12T12:09:08.989Z,3.53
2018-09-12T12:11:37.134Z,4.97
2018-09-12T12:14:05.058Z,7.33
2018-09-12T12:16:33.026Z,6.33
2018-09-12T12:19:00.943Z,6.93
2018-09-12T12:21:29.690Z,5.40
2018-09-12T12:23:58.123Z,8.83
2018-09-12T12:26:26.001Z,4.00
2018-09-12T12:28:53.861Z,2.70
2018-09-12T12:31:21.752Z,4.60
2018-09-12T12:33:49.604Z,2.83
2018-09-12T12:36:17.623Z,3.43
2018-09-12T12:38:45.529Z,2.77
2018-09-12T12:41:13.424Z,3.03
2018-09-12T12:43:41.309Z,3.20
2018-09-12T12:46:10.504Z,4.83
2018-09-12T12:48:38.514Z,3.63
2018-09-12T13:18:05.143Z,3.73
2018-09-12T13:20:33.022Z,4.63
2018-09-12T13:46:18.434Z,3.50
2018-09-12T13:48:46.321Z,3.60
2018-09-12T13:51:14.252Z,3.65
2018-09-12T14:10:52.134Z,6.27
2018-09-12T14:13:20.073Z,4.20
2018-09-12T14:15:47.941Z,4.55
2018-09-12T14:18:15.873Z,3.30
2018-09-12T14:20:43.752Z,2.95
2018-09-12T14:23:12.620Z,6.10
2018-09-12T14:25:40.557Z,8.40
2018-09-12T14:28:08.363Z,6.80
2018-09-12T14:30:36.329Z,3.00
2018-09-12T14:50:14.345Z,5.60
2018-09-12T15:07:25.003Z,7.90
2018-09-12T15:09:52.909Z,6.37
2018-09-12T15:12:20.787Z,6.23
2018-09-12T15:14:48.728Z,7.20
2018-09-12T15:17:16.611Z,4.87
2018-09-12T15:19:44.509Z,10.03
2018-09-12T15:22:12.350Z,5.77
2018-09-12T15:24:40.232Z,5.53
2018-09-12T15:27:08.061Z,4.97
2018-09-12T15:29:36.138Z,8.93
2018-09-12T15:32:03.992Z,6.60
2018-09-12T15:34:31.889Z,8.90
2018-09-12T15:36:59.802Z,10.07
2018-09-12T15:39:27.700Z,11.00
2018-09-12T15:41:55.614Z,9.10
2018-09-12T15:45:26.929Z,9.27
2018-09-12T15:47:54.861Z,8.53
2018-09-12T15:50:23.933Z,6.50
2018-09-12T15:52:51.970Z,7.10
2018-09-12T15:55:20.058Z,11.13
2018-09-12T15:57:47.940Z,8.80
2018-09-12T16:00:15.826Z,8.63
2018-09-12T16:02:43.911Z,6.80
2018-09-12T16:05:11.717Z,7.10
2018-09-12T16:07:39.585Z,9.10
2018-09-12T16:10:07.410Z,5.33
2018-09-12T16:12:35.354Z,8.20
2018-09-12T16:15:03.182Z,8.40
2018-09-12T16:17:31.092Z,12.53
2018-09-12T16:19:59.074Z,7.03
2018-09-12T16:22:27.051Z,7.80
2018-09-12T16:24:55.129Z,8.20
2018-09-12T16:27:23.002Z,7.80
2018-09-12T16:29:51.129Z,9.00
2018-09-12T16:32:18.951Z,9.30
2018-09-12T16:34:46.842Z,8.63
2018-09-12T16:37:14.721Z,8.50
2018-09-12T16:39:42.638Z,6.67
2018-09-12T16:42:10.538Z,9.17
2018-09-12T16:44:38.413Z,8.37
2018-09-12T16:47:06.498Z,12.20
2018-09-12T16:49:34.497Z,7.20
2018-09-12T16:52:02.469Z,9.60
2018-09-12T16:54:30.567Z,9.83
2018-09-12T16:56:58.597Z,9.27
2018-09-12T16:59:26.605Z,12.77
2018-09-12T17:04:22.862Z,10.50
2018-09-12T17:09:18.491Z,6.90
2018-09-12T17:11:46.372Z,8.60
2018-09-12T17:14:14.629Z,13.53
2018-09-12T17:16:42.621Z,8.30
2018-09-12T17:19:10.557Z,7.60
2018-09-12T17:21:38.457Z,8.50
2018-09-12T17:24:06.517Z,9.60
2018-09-12T17:26:34.650Z,8.40
2018-09-12T17:29:02.755Z,7.85
2018-09-12T17:31:30.807Z,7.80
2018-09-12T17:33:58.712Z,10.30
2018-09-12T17:36:27.410Z,9.23
2018-09-12T17:38:55.291Z,11.53
2018-09-12T17:41:23.109Z,16.40
2018-09-12T17:43:51.388Z,7.80
2018-09-12T17:46:19.857Z,7.33
2018-09-12T17:48:47.785Z,11.70
2018-09-12T17:51:15.720Z,9.00
2018-09-12T17:53:43.772Z,7.30
2018-09-12T17:56:11.933Z,8.60
2018-09-12T17:58:39.903Z,8.60
2018-09-12T18:01:07.781Z,10.97
2018-09-12T18:03:35.833Z,10.80
2018-09-12T18:06:04.664Z,9.90
2018-09-12T18:08:33.453Z,7.20
2018-09-12T18:11:01.818Z,8.13
2018-09-12T18:13:30.512Z,6.83
2018-09-12T18:15:59.721Z,6.90
2018-09-12T18:18:27.761Z,8.40
2018-09-12T18:20:55.988Z,7.63
2018-09-12T18:23:23.870Z,7.30
2018-09-12T18:25:52.287Z,7.85
2018-09-12T18:28:20.242Z,6.35
2018-09-12T18:30:48.187Z,5.30
2018-09-12T18:33:17.040Z,4.97
2018-09-12T18:38:13.573Z,4.90
2018-09-12T18:40:41.943Z,5.75
2018-09-12T18:43:10.120Z,6.00
2018-09-12T18:45:37.868Z,5.13
2018-09-12T18:48:05.897Z,6.50
2018-09-12T18:50:33.766Z,6.43
2018-09-12T18:53:01.806Z,3.70
2018-09-12T18:55:29.848Z,6.65
2018-09-12T18:57:57.733Z,4.13
2018-09-12T19:00:25.703Z,4.70
2018-09-12T19:02:53.811Z,5.55
2018-09-12T19:05:21.758Z,7.30
2018-09-12T19:07:49.602Z,5.93
2018-09-12T19:10:17.833Z,5.83
2018-09-12T19:12:45.802Z,4.60
2018-09-12T19:15:13.736Z,5.00
2018-09-12T19:17:41.908Z,4.03
2018-09-12T19:20:09.918Z,4.40
2018-09-12T19:22:38.089Z,3.87
2018-09-12T19:25:06.179Z,1.70
2018-09-12T19:27:34.333Z,1.80
2018-09-12T19:30:02.385Z,1.93
2018-09-12T19:32:30.444Z,2.00
2018-09-12T19:34:58.369Z,1.80
2018-09-12T19:37:26.354Z,1.30
2018-09-12T19:39:54.243Z,2.73
2018-09-12T19:42:22.277Z,2.97
2018-09-12T19:44:50.177Z,3.60
2018-09-12T19:47:18.044Z,4.53
2018-09-12T19:49:45.968Z,3.80
2018-09-12T19:52:14.045Z,4.77
2018-09-12T19:54:42.044Z,5.63
2018-09-12T19:57:10.191Z,4.23
2018-09-12T19:59:38.262Z,1.97
2018-09-12T20:02:06.221Z,2.43
2018-09-12T20:04:34.182Z,2.80
2018-09-12T20:07:02.183Z,2.50
2018-09-12T20:09:30.187Z,2.10
2018-09-12T20:11:58.020Z,2.10
2018-09-12T20:14:26.177Z,2.03
2018-09-12T20:16:54.199Z,2.40
2018-09-12T20:19:22.286Z,2.47
2018-09-12T20:21:50.137Z,1.57
2018-09-12T20:24:18.115Z,2.60
2018-09-12T20:26:46.979Z,1.87
2018-09-12T20:29:14.891Z,2.13
2018-09-12T20:31:42.941Z,1.60
2018-09-12T20:34:11.036Z,1.40
2018-09-12T20:36:38.985Z,1.40
2018-09-12T20:39:07.983Z,1.90
2018-09-12T20:41:37.902Z,2.80
2018-09-12T20:44:05.906Z,2.43
2018-09-12T20:46:33.845Z,1.60
2018-09-12T20:49:01.740Z,2.83
2018-09-12T20:51:29.683Z,1.70
2018-09-12T20:53:57.606Z,2.00
2018-09-12T20:56:25.539Z,2.67
2018-09-12T20:58:53.469Z,1.60
2018-09-12T21:01:21.394Z,2.03
2018-09-12T21:03:49.493Z,1.60
2018-09-12T21:06:17.584Z,5.60
2018-09-12T21:08:45.434Z,2.07
2018-09-12T21:11:13.346Z,4.03
2018-09-12T21:13:41.165Z,3.13
2018-09-12T21:16:09.236Z,2.23
2018-09-12T21:18:37.415Z,2.33
2018-09-12T21:21:05.526Z,4.13
2018-09-12T21:23:33.537Z,2.60
2018-09-12T21:26:01.425Z,2.70
2018-09-12T21:28:29.560Z,2.50
2018-09-12T21:30:57.462Z,4.90
2018-09-12T21:33:25.382Z,2.85
2018-09-12T21:35:53.386Z,2.60
2018-09-12T21:38:21.410Z,3.25
2018-09-12T21:40:49.312Z,3.20
2018-09-12T21:43:17.305Z,2.30
2018-09-12T21:45:45.202Z,2.90
2018-09-12T21:48:13.206Z,4.40
2018-09-12T21:50:41.096Z,3.53
2018-09-12T21:53:09.103Z,5.00
2018-09-12T21:55:37.057Z,4.43
2018-09-12T21:58:05.154Z,3.67
2018-09-12T22:03:08.088Z,3.00
2018-09-12T22:05:37.363Z,3.20
2018-09-12T22:08:05.695Z,3.85
2018-09-12T22:10:36.912Z,5.05
2018-09-12T22:13:11.247Z,3.40
2018-09-12T22:15:42.620Z,5.23
2018-09-12T22:18:12.521Z,3.30
2018-09-12T22:20:41.508Z,3.50
2018-09-12T22:23:11.386Z,4.80
2018-09-12T22:25:40.242Z,4.50
2018-09-12T22:28:09.182Z,4.73
2018-09-12T22:30:39.099Z,5.40
2018-09-12T22:33:08.992Z,3.23
2018-09-12T22:35:37.050Z,5.90
2018-09-12T22:38:06.977Z,3.57
2018-09-12T22:40:36.892Z,3.70
2018-09-12T22:43:04.866Z,3.33
2018-09-12T22:45:36.133Z,3.53
2018-09-12T22:48:06.047Z,3.37
2018-09-12T22:50:35.881Z,4.13
2018-09-12T22:53:03.848Z,3.10
2018-09-12T22:55:34.832Z,3.20
2018-09-12T22:58:02.729Z,2.20
2018-09-12T23:00:31.688Z,2.95
2018-09-12T23:03:01.593Z,3.47
2018-09-12T23:05:30.514Z,2.55
2018-09-12T23:08:03.053Z,1.80
2018-09-12T23:10:31.072Z,2.20
2018-09-12T23:13:00.971Z,2.30
2018-09-12T23:15:29.828Z,3.60
2018-09-12T23:18:01.515Z,2.05
2018-09-12T23:30:32.877Z,3.60
2018-09-12T23:33:00.822Z,2.80
2018-09-12T23:35:30.701Z,2.10
2018-09-12T23:37:58.642Z,3.30
2018-09-12T23:40:27.569Z,3.65
2018-09-12T23:45:29.799Z,3.60
2018-09-12T23:47:58.721Z,2.40
2018-09-12T23:50:30.605Z,2.30
2018-09-12T23:53:03.431Z,2.80
2018-09-12T23:55:34.368Z,4.10
2018-09-12T23:58:02.308Z,2.90
